Jump to content

Thai A350 sai da pista em HKT


rafabriga22

Recommended Posts

The pilot of the brand new Thai Airways International wide-body Airbus had a near miss landing at Phuket airport Wednesday evening, Thai-language newspapers reported.


The report said that while landing in bad weather at Phuket on a flight from Bangkok, a last-second wind shear forced the Airbus A350-WX aircraft off the runway briefly.


While still hurtling along at landing speed, the pilot reportedly pulled the aircraft out of the grassy verge and back onto the runway.


There were no casualties among the 140 passengers and crew, and no damage to the aircraft was reported by Thai media.


The Airbus A350-WX is a new plane, still undergoing familiarity flights inside Thailand, on the Bangkok-Phuket and Bangkok-Chiang Mai legs.


An investigation was launched Wednesday night to determine the exact cause of the incident.



Cs51SP2UEAE2yMC.jpgCs51SP1VIAEWTUB.jpgCs51SP0UAAApzWy.jpg



Acredito ser o primeiro incidente com o 350.




Fonte: http://www.bangkokpost.com/news/transport/1092033/new-airbus-has-near-miss-landing-at-phuket

Link to comment
Share on other sites

Incident: Thai A359 at Phuket on Sep 21st 2016, temporary runway excursion on landing

By Simon Hradecky, created Thursday, Sep 22nd 2016 14:45Z, last updated Thursday, Sep 22nd 2016 14:55Z

 

A Thai Airways Airbus A350-900, registration HS-THB performing flight TG-221 from Bangkok to Phuket (Thailand) with 138 passengers and 14 crew, landed on Phuket's runway 27 at 19:46L (12:46Z), but went temporarily left off the runway, damaged four left main tyres and a number of runway edge lights before returning onto the runway. There were no injuries, the aircraft sustained minor damage, four left main tyres received dents and scratches but remained inflated.

The airport reported the occurrence also caused damage to the runway which could be quickly repaired. The airport went into operation again after about 2.5 hours.

The airline reported despite poor weather and poor visibility the aircraft was cleared to land, a gust blew the aircraft off the runway. Four wheels were damaged as result of the occurrence.

The occurrence aircraft is still on the ground in Phuket 26 hours after landing.

Metars:
VTSP 211500Z 28004KT 7000 -RA SCT016 BKN100 24/22 Q1014 NOSIG=
VTSP 211430Z 29005KT 260V320 7000 -RA SCT016 BKN100 24/23 Q1013 NOSIG=
VTSP 211400Z 28010KT 260V330 7000 -RA SCT016 BKN100 24/22 Q1014 RERA NOSIG=
VTSP 211330Z 27017KT 3000 RA SCT015 SCT018 BKN100 24/22 Q1014 RERA NOSIG=
VTSP 211300Z 26020KT 2000 +RA SCT015 SCT020 BKN100 24/22 Q1013 NOSIG=
VTSP 211230Z 24012KT 1000 +RA SCT015 SCT020 BKN100 24/22 Q1013 TEMPO SHRA=
VTSP 211200Z 28020KT 2000 +RA SCT015 SCT020 BKN100 25/23 Q1012 NOSIG=
VTSP 211130Z 27013KT 3000 RA SCT015 SCT020 BKN100 24/23 Q1012 RERA=
VTSP 211100Z 32006KT 5000 -RA SCT016 SCT020 BKN100 25/22 Q1011 TEMPO 2000 SHRA=
VTSP 211030Z 29008KT 5000 -RA SCT016 SCT020 BKN100 25/22 Q1011 NOSIG=
VTSP 211000Z 29012KT 3000 RA SCT016 SCT020 BKN100 25/22 Q1011 NOSIG=
VTSP 210930Z 29015KT 3000 RA SCT016 SCT020 BKN100 25/22 Q1011 NOSIG=
VTSP 210900Z 29018KT 7000 SCT018 SCT020 BKN100 26/23 Q1011 NOSIG=

 

Fonte: http://avherald.com/h?article=49e5774b&opt=0

 

Link to comment
Share on other sites

Não ... foi um A350.... segue link do video no youtube :

 

Isso passou longe, muito longe, de ser um incidente... E para classificar como hard Landing, só vendo no FDR... Pra mim, foi apenas um pouso mais duro... Nada demais

Link to comment
Share on other sites

Isso passou longe, muito longe, de ser um incidente... E para classificar como hard Landing, só vendo no FDR... Pra mim, foi apenas um pouso mais duro... Nada demais

 

Hard Landing aí só o título do vídeo mesmo.

 

Colaram a placa e o avião voltou normal pra GRU logo depois.

Link to comment
Share on other sites

Archived

This topic is now archived and is closed to further replies.

×
×
  • Create New...

Important Information

Saiba os termos, regras e políticas de privacidade